Time,TemperatureF,DewpointF,PressureIn,WindDirection,WindDirectionDegrees,WindSpeedMPH,WindSpeedGustMPH,Humidity,HourlyPrecipIn,Conditions,Clouds,dailyrainin,SoftwareType,DateUTC
2013-03-05 00:00:00,2.3,-1.4,30.54,SE,134,6.0,12.0,84,0.00,,---,0.00,VWS V13.00,2013-03-05 07:00:00,
2013-03-05 00:05:00,2.1,-1.6,30.54,SE,134,10.0,12.0,84,0.00,,---,0.00,VWS V13.00,2013-03-05 07:05:00,
2013-03-05 00:10:00,1.8,-2.2,30.54,SE,129,6.0,7.0,83,0.00,,---,0.00,VWS V13.00,2013-03-05 07:10:00,
2013-03-05 00:15:00,1.4,-2.3,30.54,SE,129,7.0,9.0,84,0.00,,---,0.00,VWS V13.00,2013-03-05 07:15:00,
2013-03-05 00:20:00,1.4,-2.3,30.54,SE,130,6.0,11.0,84,0.00,,---,0.00,VWS V13.00,2013-03-05 07:20:00,
2013-03-05 00:25:00,1.9,-1.6,30.54,SE,134,11.0,12.0,85,0.00,,---,0.00,VWS V13.00,2013-03-05 07:25:00,
2013-03-05 00:30:00,2.2,-1.5,30.54,SE,133,9.0,12.0,84,0.00,,---,0.00,VWS V13.00,2013-03-05 07:30:00,
2013-03-05 00:35:00,2.1,-1.6,30.54,SE,138,9.0,12.0,84,0.00,,---,0.00,VWS V13.00,2013-03-05 07:35:00,
2013-03-05 00:40:00,1.9,-1.8,30.53,SE,141,11.0,11.0,84,0.00,,---,0.00,VWS V13.00,2013-03-05 07:40:00,
2013-03-05 00:45:00,1.9,-1.8,30.53,SE,146,12.0,12.0,84,0.00,,---,0.00,VWS V13.00,2013-03-05 07:45:00,
2013-03-05 00:50:00,1.8,-2.2,30.53,SE,146,12.0,13.0,83,0.00,,---,0.00,VWS V13.00,2013-03-05 07:50:00,
2013-03-05 00:55:00,2.0,-1.7,30.52,SE,145,11.0,13.0,84,0.00,,---,0.00,VWS V13.00,2013-03-05 07:55:00,
2013-03-05 01:00:00,2.2,-1.5,30.52,SE,139,11.0,13.0,84,0.00,,---,0.00,VWS V13.00,2013-03-05 08:00:00,
2013-03-05 01:05:00,2.6,-1.1,30.52,SE,140,10.0,13.0,84,0.00,,---,0.00,VWS V13.00,2013-03-05 08:05:00,
2013-03-05 01:10:00,2.6,-1.1,30.52,SE,142,11.0,12.0,84,0.00,,---,0.00,VWS V13.00,2013-03-05 08:10:00,
2013-03-05 01:15:00,2.8,-0.9,30.52,SE,141,11.0,13.0,84,0.00,,---,0.00,VWS V13.00,2013-03-05 08:15:00,
2013-03-05 01:20:00,2.9,-1.1,30.52,SE,138,13.0,13.0,83,0.00,,---,0.00,VWS V13.00,2013-03-05 08:20:00,
2013-03-05 01:25:00,2.7,-1.3,30.52,SE,139,13.0,14.0,83,0.00,,---,0.00,VWS V13.00,2013-03-05 08:25:00,
2013-03-05 01:30:00,2.6,-1.1,30.52,SE,142,13.0,15.0,84,0.00,,---,0.00,VWS V13.00,2013-03-05 08:30:00,
2013-03-05 01:35:00,2.8,-0.9,30.52,SE,142,13.0,15.0,84,0.00,,---,0.00,VWS V13.00,2013-03-05 08:35:00,
2013-03-05 01:40:00,2.9,-0.8,30.51,SE,145,14.0,15.0,84,0.00,,---,0.00,VWS V13.00,2013-03-05 08:40:00,
2013-03-05 01:45:00,2.7,-1.3,30.51,SSE,148,13.0,17.0,83,0.00,,---,0.00,VWS V13.00,2013-03-05 08:45:00,
2013-03-05 01:50:00,2.9,-0.8,30.51,SE,140,12.0,17.0,84,0.00,,---,0.00,VWS V13.00,2013-03-05 08:50:00,
2013-03-05 01:55:00,2.8,-1.2,30.50,SE,140,12.0,17.0,83,0.00,,---,0.00,VWS V13.00,2013-03-05 08:55:00,
2013-03-05 02:00:00,2.5,-1.5,30.50,SE,139,12.0,17.0,83,0.00,,---,0.00,VWS V13.00,2013-03-05 09:00:00,
2013-03-05 02:05:00,2.3,-1.7,30.50,SE,137,11.0,17.0,83,0.00,,---,0.00,VWS V13.00,2013-03-05 09:05:00,
2013-03-05 02:10:00,2.2,-1.5,30.50,SE,138,12.0,12.0,84,0.00,,---,0.00,VWS V13.00,2013-03-05 09:10:00,
2013-03-05 02:15:00,2.5,-1.2,30.50,SE,137,12.0,13.0,84,0.00,,---,0.00,VWS V13.00,2013-03-05 09:15:00,
2013-03-05 02:20:00,2.8,-0.9,30.50,SE,134,12.0,14.0,84,0.00,,---,0.00,VWS V13.00,2013-03-05 09:20:00,
2013-03-05 02:25:00,3.1,-0.6,30.50,SE,133,13.0,14.0,84,0.00,,---,0.00,VWS V13.00,2013-03-05 09:25:00,
2013-03-05 02:30:00,3.4,-0.3,30.50,SE,130,10.0,14.0,84,0.00,,---,0.00,VWS V13.00,2013-03-05 09:30:00,
2013-03-05 02:35:00,3.5,-0.2,30.50,SE,131,11.0,14.0,84,0.00,,---,0.00,VWS V13.00,2013-03-05 09:35:00,
2013-03-05 02:40:00,3.5,-0.2,30.47,SE,130,10.0,11.0,84,0.00,,---,0.00,VWS V13.00,2013-03-05 09:40:00,
2013-03-05 02:45:00,3.6,0.1,30.47,SE,130,11.0,13.0,85,0.00,,---,0.00,VWS V13.00,2013-03-05 09:45:00,
2013-03-05 02:50:00,4.1,0.6,30.47,SE,131,10.0,14.0,85,0.00,,---,0.00,VWS V13.00,2013-03-05 09:50:00,
2013-03-05 02:55:00,4.2,0.7,30.48,SE,130,11.0,14.0,85,0.00,,---,0.00,VWS V13.00,2013-03-05 09:55:00,
2013-03-05 03:00:00,4.4,0.9,30.48,SE,134,11.0,14.0,85,0.00,,---,0.00,VWS V13.00,2013-03-05 10:00:00,
2013-03-05 03:05:00,4.7,1.2,30.48,SE,133,11.0,14.0,85,0.00,,---,0.00,VWS V13.00,2013-03-05 10:05:00,
2013-03-05 03:10:00,4.7,1.2,30.46,SE,135,11.0,12.0,85,0.00,,---,0.00,VWS V13.00,2013-03-05 10:10:00,
2013-03-05 03:15:00,4.9,1.4,30.46,SE,134,11.0,12.0,85,0.00,,---,0.00,VWS V13.00,2013-03-05 10:15:00,
2013-03-05 03:20:00,4.6,0.8,30.46,SE,133,12.0,13.0,84,0.00,,---,0.00,VWS V13.00,2013-03-05 10:20:00,
2013-03-05 03:25:00,4.8,1.3,30.46,SE,134,11.0,13.0,85,0.00,,---,0.00,VWS V13.00,2013-03-05 10:25:00,
2013-03-05 03:30:00,5.0,1.5,30.46,SE,133,11.0,13.0,85,0.00,,---,0.00,VWS V13.00,2013-03-05 10:30:00,
2013-03-05 03:35:00,4.9,1.1,30.46,SE,134,12.0,14.0,84,0.00,,---,0.00,VWS V13.00,2013-03-05 10:35:00,
2013-03-05 03:40:00,4.9,1.4,30.45,SE,134,12.0,14.0,85,0.00,,---,0.00,VWS V13.00,2013-03-05 10:40:00,
2013-03-05 03:45:00,5.3,1.8,30.45,SE,135,13.0,14.0,85,0.00,,---,0.00,VWS V13.00,2013-03-05 10:45:00,
2013-03-05 03:50:00,5.6,1.8,30.45,SE,134,12.0,14.0,84,0.00,,---,0.00,VWS V13.00,2013-03-05 10:50:00,
2013-03-05 03:55:00,5.6,1.8,30.45,SE,132,12.0,14.0,84,0.00,,---,0.00,VWS V13.00,2013-03-05 10:55:00,
2013-03-05 04:00:00,5.4,1.6,30.45,SE,133,10.0,14.0,84,0.00,,---,0.00,VWS V13.00,2013-03-05 11:00:00,
2013-03-05 04:05:00,5.2,1.4,30.45,SE,130,9.0,14.0,84,0.00,,---,0.00,VWS V13.00,2013-03-05 11:05:00,
2013-03-05 04:10:00,5.0,1.2,30.44,SE,126,9.0,11.0,84,0.00,,---,0.00,VWS V13.00,2013-03-05 11:10:00,
2013-03-05 04:15:00,4.7,0.9,30.44,SE,128,9.0,11.0,84,0.00,,---,0.00,VWS V13.00,2013-03-05 11:15:00,
2013-03-05 04:20:00,4.8,1.0,30.44,SE,132,11.0,12.0,84,0.00,,---,0.00,VWS V13.00,2013-03-05 11:20:00,
2013-03-05 04:25:00,5.1,1.3,30.44,SE,136,12.0,14.0,84,0.00,,---,0.00,VWS V13.00,2013-03-05 11:25:00,
2013-03-05 04:30:00,5.0,1.0,30.44,SE,136,11.0,14.0,83,0.00,,---,0.00,VWS V13.00,2013-03-05 11:30:00,
2013-03-05 04:35:00,4.7,0.7,30.44,SE,130,11.0,14.0,83,0.00,,---,0.00,VWS V13.00,2013-03-05 11:35:00,
2013-03-05 04:40:00,4.4,0.4,30.45,SE,134,12.0,13.0,83,0.00,,---,0.00,VWS V13.00,2013-03-05 11:40:00,
2013-03-05 04:45:00,4.2,0.2,30.45,SE,133,11.0,13.0,83,0.00,,---,0.00,VWS V13.00,2013-03-05 11:45:00,
2013-03-05 04:50:00,4.0,0.2,30.45,SE,128,10.0,13.0,84,0.00,,---,0.00,VWS V13.00,2013-03-05 11:50:00,
2013-03-05 04:55:00,4.1,0.3,30.46,SE,127,9.0,13.0,84,0.00,,---,0.00,VWS V13.00,2013-03-05 11:55:00,
2013-03-05 05:00:00,3.9,-0.1,30.46,SE,124,9.0,13.0,83,0.00,,---,0.00,VWS V13.00,2013-03-05 12:00:00,
2013-03-05 05:05:00,3.6,-0.4,30.46,ESE,118,8.0,13.0,83,0.00,,---,0.00,VWS V13.00,2013-03-05 12:05:00,
2013-03-05 05:10:00,3.4,-0.6,30.46,SE,126,11.0,12.0,83,0.00,,---,0.00,VWS V13.00,2013-03-05 12:10:00,
2013-03-05 05:15:00,3.1,-0.9,30.46,ESE,123,11.0,12.0,83,0.00,,---,0.00,VWS V13.00,2013-03-05 12:15:00,
2013-03-05 05:20:00,3.1,-0.9,30.46,ESE,123,7.0,12.0,83,0.00,,---,0.00,VWS V13.00,2013-03-05 12:20:00,
2013-03-05 05:25:00,2.8,-1.2,30.46,ESE,122,7.0,12.0,83,0.00,,---,0.00,VWS V13.00,2013-03-05 12:25:00,
2013-03-05 05:30:00,2.7,-1.3,30.46,ESE,121,7.0,12.0,83,0.00,,---,0.00,VWS V13.00,2013-03-05 12:30:00,
2013-03-05 05:35:00,2.3,-1.7,30.46,SE,129,9.0,12.0,83,0.00,,---,0.00,VWS V13.00,2013-03-05 12:35:00,
2013-03-05 05:40:00,2.5,-1.5,30.46,SE,130,10.0,11.0,83,0.00,,---,0.00,VWS V13.00,2013-03-05 12:40:00,
2013-03-05 05:45:00,2.5,-1.5,30.46,SE,125,6.0,11.0,83,0.00,,---,0.00,VWS V13.00,2013-03-05 12:45:00,
2013-03-05 05:50:00,2.4,-1.6,30.46,SE,134,12.0,12.0,83,0.00,,---,0.00,VWS V13.00,2013-03-05 12:50:00,
2013-03-05 05:55:00,2.6,-1.1,30.47,SE,130,9.0,14.0,84,0.00,,---,0.00,VWS V13.00,2013-03-05 12:55:00,
2013-03-05 06:00:00,2.7,-1.3,30.47,SE,128,6.0,14.0,83,0.00,,---,0.00,VWS V13.00,2013-03-05 13:00:00,
2013-03-05 06:05:00,2.5,-1.5,30.47,SE,126,12.0,14.0,83,0.00,,---,0.00,VWS V13.00,2013-03-05 13:05:00,
2013-03-05 06:09:00,2.4,-1.6,30.46,SE,130,9.0,11.0,83,0.00,,---,0.00,VWS V13.00,2013-03-05 13:09:00,
2013-03-05 06:14:00,2.1,-1.9,30.46,SE,127,12.0,12.0,83,0.00,,---,0.00,VWS V13.00,2013-03-05 13:14:00,
2013-03-05 06:19:00,2.2,-1.8,30.46,ESE,122,9.0,12.0,83,0.00,,---,0.00,VWS V13.00,2013-03-05 13:19:00,
2013-03-05 06:25:00,2.2,-1.8,30.46,SE,127,5.0,12.0,83,0.00,,---,0.00,VWS V13.00,2013-03-05 13:25:00,
2013-03-05 06:30:00,1.9,-2.1,30.46,SE,128,3.0,12.0,83,0.00,,---,0.00,VWS V13.00,2013-03-05 13:30:00,
2013-03-05 06:35:00,1.5,-2.5,30.46,SE,130,7.0,12.0,83,0.00,,---,0.00,VWS V13.00,2013-03-05 13:35:00,
2013-03-05 06:39:00,1.6,-2.1,30.45,SE,134,10.0,10.0,84,0.00,,---,0.00,VWS V13.00,2013-03-05 13:39:00,
2013-03-05 06:45:00,1.7,-2.3,30.45,SE,130,7.0,10.0,83,0.00,,---,0.00,VWS V13.00,2013-03-05 13:45:00,
2013-03-05 06:50:00,1.6,-2.4,30.45,SE,132,10.0,10.0,83,0.00,,---,0.00,VWS V13.00,2013-03-05 13:50:00,
2013-03-05 06:55:00,1.4,-2.5,30.47,SE,130,7.0,11.0,83,0.00,,---,0.00,VWS V13.00,2013-03-05 13:55:00,
2013-03-05 07:00:00,1.4,-2.3,30.47,SE,132,9.0,11.0,84,0.00,,---,0.00,VWS V13.00,2013-03-05 14:00:00,
2013-03-05 07:05:00,1.8,-1.9,30.47,SE,138,12.0,12.0,84,0.00,,---,0.00,VWS V13.00,2013-03-05 14:05:00,
2013-03-05 07:09:00,2.3,-1.4,30.46,SE,130,11.0,11.0,84,0.00,,---,0.00,VWS V13.00,2013-03-05 14:09:00,
2013-03-05 07:14:00,3.0,-0.7,30.46,SE,125,3.0,11.0,84,0.00,,---,0.00,VWS V13.00,2013-03-05 14:14:00,
2013-03-05 07:20:00,3.3,-0.4,30.46,SE,125,5.0,11.0,84,0.00,,---,0.00,VWS V13.00,2013-03-05 14:20:00,
2013-03-05 07:25:00,3.9,0.2,30.45,SE,136,10.0,11.0,84,0.00,,---,0.00,VWS V13.00,2013-03-05 14:25:00,
2013-03-05 07:30:00,4.3,0.3,30.45,SE,138,6.0,12.0,83,0.00,,---,0.00,VWS V13.00,2013-03-05 14:30:00,
2013-03-05 07:35:00,4.6,0.6,30.45,SE,136,8.0,12.0,83,0.00,,---,0.00,VWS V13.00,2013-03-05 14:35:00,
2013-03-05 07:40:00,5.2,1.2,30.45,SE,136,10.0,11.0,83,0.00,,---,0.00,VWS V13.00,2013-03-05 14:40:00,
2013-03-05 07:45:00,5.4,1.4,30.45,SE,139,8.0,12.0,83,0.00,,---,0.00,VWS V13.00,2013-03-05 14:45:00,
2013-03-05 07:50:00,5.1,0.8,30.45,SE,139,7.0,12.0,82,0.00,,---,0.00,VWS V13.00,2013-03-05 14:50:00,
2013-03-05 07:55:00,5.1,1.1,30.47,SE,137,10.0,13.0,83,0.00,,---,0.00,VWS V13.00,2013-03-05 14:55:00,
2013-03-05 07:59:00,5.6,1.6,30.47,SE,137,8.0,13.0,83,0.00,,---,0.00,VWS V13.00,2013-03-05 14:59:00,
2013-03-05 08:04:00,6.3,2.2,30.47,SE,131,9.0,13.0,83,0.00,,---,0.00,VWS V13.00,2013-03-05 15:04:00,
2013-03-05 08:09:00,7.1,3.0,30.46,SE,131,8.0,9.0,83,0.00,,---,0.00,VWS V13.00,2013-03-05 15:09:00,
2013-03-05 08:14:00,7.6,3.3,30.46,ESE,121,10.0,11.0,82,0.00,,---,0.00,VWS V13.00,2013-03-05 15:14:00,
2013-03-05 08:19:00,7.7,3.4,30.46,ESE,121,5.0,11.0,82,0.00,,---,0.00,VWS V13.00,2013-03-05 15:19:00,
2013-03-05 08:24:00,7.8,3.5,30.45,ESE,118,9.0,11.0,82,0.00,,---,0.00,VWS V13.00,2013-03-05 15:24:00,
2013-03-05 08:29:00,8.1,3.8,30.45,SE,124,8.0,11.0,82,0.00,,---,0.00,VWS V13.00,2013-03-05 15:29:00,
2013-03-05 08:34:00,8.7,4.3,30.45,ESE,121,9.0,12.0,82,0.00,,---,0.00,VWS V13.00,2013-03-05 15:34:00,
2013-03-05 08:39:00,9.3,4.9,30.43,ESE,116,8.0,9.0,82,0.00,,---,0.00,VWS V13.00,2013-03-05 15:39:00,
2013-03-05 08:44:00,9.9,5.5,30.43,ESE,119,10.0,11.0,82,0.00,,---,0.00,VWS V13.00,2013-03-05 15:44:00,
2013-03-05 08:49:00,10.6,6.2,30.43,SE,126,10.0,11.0,82,0.00,,---,0.00,VWS V13.00,2013-03-05 15:49:00,
2013-03-05 08:54:00,11.4,6.7,30.44,SE,129,10.0,12.0,81,0.00,,---,0.00,VWS V13.00,2013-03-05 15:54:00,
2013-03-05 08:59:00,12.2,7.5,30.44,SE,129,8.0,12.0,81,0.00,,---,0.00,VWS V13.00,2013-03-05 15:59:00,
2013-03-05 09:04:00,12.8,7.8,30.44,SE,129,9.0,12.0,80,0.00,,---,0.00,VWS V13.00,2013-03-05 16:04:00,
2013-03-05 09:09:00,13.4,8.4,30.43,SE,127,6.0,9.0,80,0.00,,---,0.00,VWS V13.00,2013-03-05 16:09:00,
2013-03-05 09:14:00,13.8,9.1,30.43,SE,126,7.0,10.0,81,0.00,,---,0.00,VWS V13.00,2013-03-05 16:14:00,
2013-03-05 09:19:00,14.1,9.1,30.43,ESE,123,6.0,10.0,80,0.00,,---,0.00,VWS V13.00,2013-03-05 16:19:00,
2013-03-05 09:24:00,14.5,9.7,30.43,ESE,123,6.0,10.0,81,0.00,,---,0.00,VWS V13.00,2013-03-05 16:24:00,
2013-03-05 09:29:00,15.0,10.0,30.43,ESE,122,6.0,10.0,80,0.00,,---,0.00,VWS V13.00,2013-03-05 16:29:00,
2013-03-05 09:34:00,15.7,10.6,30.43,SE,128,10.0,12.0,80,0.00,,---,0.00,VWS V13.00,2013-03-05 16:34:00,
2013-03-05 09:39:00,16.4,11.3,30.41,SE,130,7.0,8.0,80,0.00,,---,0.00,VWS V13.00,2013-03-05 16:39:00,
2013-03-05 09:44:00,17.2,12.4,30.41,SE,130,8.0,10.0,81,0.00,,---,0.00,VWS V13.00,2013-03-05 16:44:00,
2013-03-05 09:49:00,17.9,12.8,30.41,SE,130,5.0,10.0,80,0.00,,---,0.00,VWS V13.00,2013-03-05 16:49:00,
2013-03-05 09:54:00,18.6,13.5,30.41,SE,130,6.0,10.0,80,0.00,,---,0.00,VWS V13.00,2013-03-05 16:54:00,
2013-03-05 09:59:00,19.5,14.1,30.41,SE,132,7.0,10.0,79,0.00,,---,0.00,VWS V13.00,2013-03-05 16:59:00,
2013-03-05 10:04:00,20.2,14.4,30.41,SE,134,10.0,10.0,78,0.00,,---,0.00,VWS V13.00,2013-03-05 17:04:00,
2013-03-05 10:09:00,20.9,14.8,30.39,SE,134,6.0,9.0,77,0.00,,---,0.00,VWS V13.00,2013-03-05 17:09:00,
2013-03-05 10:14:00,21.7,15.6,30.39,SE,136,7.0,9.0,77,0.00,,---,0.00,VWS V13.00,2013-03-05 17:14:00,
2013-03-05 10:19:00,22.4,16.0,30.39,SE,135,6.0,9.0,76,0.00,,---,0.00,VWS V13.00,2013-03-05 17:19:00,
2013-03-05 10:24:00,23.0,16.3,30.37,SE,136,6.0,9.0,75,0.00,,---,0.00,VWS V13.00,2013-03-05 17:24:00,
2013-03-05 10:29:00,23.8,16.4,30.37,SE,137,5.0,9.0,73,0.00,,---,0.00,VWS V13.00,2013-03-05 17:29:00,
2013-03-05 10:34:00,24.6,16.9,30.37,SE,138,5.0,9.0,72,0.00,,---,0.00,VWS V13.00,2013-03-05 17:34:00,
2013-03-05 10:39:00,25.1,17.4,30.36,SE,131,4.0,5.0,72,0.00,,---,0.00,VWS V13.00,2013-03-05 17:39:00,
2013-03-05 10:44:00,25.9,17.1,30.36,SE,130,5.0,7.0,69,0.00,,---,0.00,VWS V13.00,2013-03-05 17:44:00,
2013-03-05 10:49:00,26.5,17.4,30.36,SE,125,4.0,7.0,68,0.00,,---,0.00,VWS V13.00,2013-03-05 17:49:00,
2013-03-05 10:54:00,27.4,17.5,30.36,SE,125,4.0,7.0,66,0.00,,---,0.00,VWS V13.00,2013-03-05 17:54:00,
2013-03-05 10:59:00,28.0,18.1,30.36,SE,125,3.0,7.0,66,0.00,,---,0.00,VWS V13.00,2013-03-05 17:59:00,
2013-03-05 11:04:00,28.3,18.4,30.36,SE,125,5.0,7.0,66,0.00,,---,0.00,VWS V13.00,2013-03-05 18:04:00,
2013-03-05 11:09:00,28.6,18.3,30.34,SE,124,5.0,7.0,65,0.00,,---,0.00,VWS V13.00,2013-03-05 18:09:00,
2013-03-05 11:14:00,28.8,18.2,30.34,SE,124,4.0,7.0,64,0.00,,---,0.00,VWS V13.00,2013-03-05 18:14:00,
2013-03-05 11:19:00,29.1,18.1,30.34,SE,124,5.0,7.0,63,0.00,,---,0.00,VWS V13.00,2013-03-05 18:19:00,
2013-03-05 11:24:00,29.4,18.4,30.34,ESE,123,4.0,7.0,63,0.00,,---,0.00,VWS V13.00,2013-03-05 18:24:00,
2013-03-05 11:29:00,29.4,18.4,30.34,SE,124,2.0,7.0,63,0.00,,---,0.00,VWS V13.00,2013-03-05 18:29:00,
2013-03-05 11:34:00,29.6,18.2,30.34,SE,124,3.0,7.0,62,0.00,,---,0.00,VWS V13.00,2013-03-05 18:34:00,
2013-03-05 11:39:00,29.8,18.4,30.32,SE,124,4.0,5.0,62,0.00,,---,0.00,VWS V13.00,2013-03-05 18:39:00,
2013-03-05 11:44:00,30.1,18.7,30.32,ESE,116,5.0,6.0,62,0.00,,---,0.00,VWS V13.00,2013-03-05 18:44:00,
2013-03-05 11:49:00,30.3,18.9,30.32,ESE,107,2.0,6.0,62,0.00,,---,0.00,VWS V13.00,2013-03-05 18:49:00,
2013-03-05 11:54:00,30.5,18.3,30.32,ESE,107,4.0,6.0,60,0.00,,---,0.00,VWS V13.00,2013-03-05 18:54:00,
2013-03-05 11:59:00,30.5,17.5,30.32,ESE,106,3.0,6.0,58,0.00,,---,0.00,VWS V13.00,2013-03-05 18:59:00,
2013-03-05 12:04:00,30.6,18.0,30.32,ESE,106,0.0,6.0,59,0.00,,---,0.00,VWS V13.00,2013-03-05 19:04:00,
2013-03-05 12:09:00,30.7,17.7,30.32,ESE,106,2.0,5.0,58,0.00,,---,0.00,VWS V13.00,2013-03-05 19:09:00,
2013-03-05 12:14:00,30.7,17.7,30.32,ESE,106,0.0,5.0,58,0.00,,---,0.00,VWS V13.00,2013-03-05 19:14:00,
2013-03-05 12:19:00,31.0,18.8,30.32,ESE,106,0.0,5.0,60,0.00,,---,0.00,VWS V13.00,2013-03-05 19:19:00,
2013-03-05 12:24:00,31.1,18.1,30.31,ESE,106,0.0,6.0,58,0.00,,---,0.00,VWS V13.00,2013-03-05 19:24:00,
2013-03-05 12:29:00,31.2,18.2,30.31,ESE,105,3.0,6.0,58,0.00,,---,0.00,VWS V13.00,2013-03-05 19:29:00,
2013-03-05 12:34:00,31.2,18.2,30.31,ESE,105,2.0,6.0,58,0.00,,---,0.00,VWS V13.00,2013-03-05 19:34:00,
2013-03-05 12:39:00,31.2,18.5,30.30,ESE,105,2.0,4.0,59,0.00,,---,0.00,VWS V13.00,2013-03-05 19:39:00,
2013-03-05 12:44:00,31.4,18.4,30.30,ESE,105,5.0,5.0,58,0.00,,---,0.00,VWS V13.00,2013-03-05 19:44:00,
2013-03-05 12:49:00,31.4,17.9,30.30,ESE,104,5.0,5.0,57,0.00,,---,0.00,VWS V13.00,2013-03-05 19:49:00,
2013-03-05 12:54:00,31.4,19.1,30.29,East,99,4.0,6.0,60,0.00,,---,0.00,VWS V13.00,2013-03-05 19:54:00,
2013-03-05 12:59:00,31.4,19.1,30.29,East,97,3.0,7.0,60,0.00,,---,0.00,VWS V13.00,2013-03-05 19:59:00,
2013-03-05 13:04:00,31.5,20.0,30.29,East,86,4.0,7.0,62,0.00,,---,0.00,VWS V13.00,2013-03-05 20:04:00,
2013-03-05 13:09:00,31.6,19.3,30.28,East,84,4.0,5.0,60,0.00,,---,0.00,VWS V13.00,2013-03-05 20:09:00,
2013-03-05 13:14:00,31.6,19.3,30.28,East,84,6.0,6.0,60,0.00,,---,0.00,VWS V13.00,2013-03-05 20:14:00,
2013-03-05 13:19:00,31.6,18.9,30.28,East,82,4.0,6.0,59,0.00,,---,0.00,VWS V13.00,2013-03-05 20:19:00,
2013-03-05 13:24:00,31.7,18.6,30.27,ENE,77,4.0,7.0,58,0.00,,---,0.00,VWS V13.00,2013-03-05 20:24:00,
2013-03-05 13:29:00,31.7,17.4,30.27,ENE,77,5.0,7.0,55,0.00,,---,0.00,VWS V13.00,2013-03-05 20:29:00,
2013-03-05 13:34:00,31.9,18.4,30.27,ENE,76,6.0,7.0,57,0.00,,---,0.00,VWS V13.00,2013-03-05 20:34:00,
2013-03-05 13:39:00,32.1,19.0,30.26,East,86,6.0,8.0,58,0.00,,---,0.00,VWS V13.00,2013-03-05 20:39:00,
2013-03-05 13:44:00,32.0,20.5,30.26,East,90,6.0,9.0,62,0.00,,---,0.00,VWS V13.00,2013-03-05 20:44:00,
2013-03-05 13:49:00,32.1,18.6,30.26,East,83,6.0,9.0,57,0.00,,---,0.00,VWS V13.00,2013-03-05 20:49:00,
2013-03-05 13:54:00,32.0,18.9,30.25,East,89,7.0,11.0,58,0.00,,---,0.00,VWS V13.00,2013-03-05 20:54:00,
2013-03-05 13:59:00,31.8,19.1,30.25,East,92,5.0,11.0,59,0.00,,---,0.00,VWS V13.00,2013-03-05 20:59:00,
2013-03-05 14:04:00,31.8,18.7,30.25,East,99,4.0,11.0,58,0.00,,---,0.00,VWS V13.00,2013-03-05 21:04:00,
2013-03-05 14:09:00,31.4,18.7,30.25,ESE,109,6.0,7.0,59,0.00,,---,0.00,VWS V13.00,2013-03-05 21:09:00,
2013-03-05 14:14:00,31.0,18.4,30.25,ESE,103,6.0,11.0,59,0.00,,---,0.00,VWS V13.00,2013-03-05 21:14:00,
2013-03-05 14:19:00,31.1,18.5,30.25,ESE,105,6.0,11.0,59,0.00,,---,0.00,VWS V13.00,2013-03-05 21:19:00,
2013-03-05 14:24:00,31.4,18.4,30.25,ESE,109,7.0,11.0,58,0.00,,---,0.00,VWS V13.00,2013-03-05 21:24:00,
2013-03-05 14:29:00,31.6,18.9,30.25,ESE,107,4.0,11.0,59,0.00,,---,0.00,VWS V13.00,2013-03-05 21:29:00,
2013-03-05 14:34:00,31.6,18.9,30.25,ESE,109,5.0,11.0,59,0.00,,---,0.00,VWS V13.00,2013-03-05 21:34:00,
2013-03-05 14:39:00,31.7,19.4,30.24,ESE,107,5.0,7.0,60,0.00,,---,0.00,VWS V13.00,2013-03-05 21:39:00,
2013-03-05 14:44:00,31.6,18.9,30.24,ESE,108,6.0,7.0,59,0.00,,---,0.00,VWS V13.00,2013-03-05 21:44:00,
2013-03-05 14:49:00,31.6,19.3,30.24,ESE,106,7.0,9.0,60,0.00,,---,0.00,VWS V13.00,2013-03-05 21:49:00,
2013-03-05 14:54:00,30.8,18.6,30.23,ESE,103,5.0,9.0,60,0.00,,---,0.00,VWS V13.00,2013-03-05 21:54:00,
2013-03-05 14:59:00,30.0,18.2,30.23,East,101,6.0,11.0,61,0.00,,---,0.00,VWS V13.00,2013-03-05 21:59:00,
2013-03-05 15:04:00,29.3,17.9,30.23,East,99,7.0,11.0,62,0.00,,---,0.00,VWS V13.00,2013-03-05 22:04:00,
2013-03-05 15:09:00,29.0,17.6,30.24,East,99,4.0,7.0,62,0.00,,---,0.00,VWS V13.00,2013-03-05 22:09:00,
2013-03-05 15:14:00,28.8,17.4,30.24,East,99,10.0,10.0,62,0.00,,---,0.00,VWS V13.00,2013-03-05 22:14:00,
2013-03-05 15:19:00,28.9,18.3,30.24,East,99,9.0,10.0,64,0.00,,---,0.00,VWS V13.00,2013-03-05 22:19:00,
2013-03-05 15:24:00,28.9,17.9,30.24,East,100,6.0,10.0,63,0.00,,---,0.00,VWS V13.00,2013-03-05 22:24:00,
2013-03-05 15:29:00,28.9,18.3,30.24,ESE,102,7.0,11.0,64,0.00,,---,0.00,VWS V13.00,2013-03-05 22:29:00,
2013-03-05 15:34:00,28.8,18.2,30.24,ESE,102,9.0,11.0,64,0.00,,---,0.00,VWS V13.00,2013-03-05 22:34:00,
2013-03-05 15:39:00,28.5,17.9,30.24,East,101,11.0,11.0,64,0.00,,---,0.00,VWS V13.00,2013-03-05 22:39:00,
2013-03-05 15:44:00,28.1,17.9,30.24,ESE,104,12.0,13.0,65,0.00,,---,0.00,VWS V13.00,2013-03-05 22:44:00,
2013-03-05 15:49:00,28.0,18.1,30.24,East,98,10.0,15.0,66,0.00,,---,0.00,VWS V13.00,2013-03-05 22:49:00,
2013-03-05 15:54:00,27.9,18.4,30.25,East,99,10.0,15.0,67,0.00,,---,0.00,VWS V13.00,2013-03-05 22:54:00,
2013-03-05 15:59:00,27.9,18.7,30.25,East,96,6.0,15.0,68,0.00,,---,0.00,VWS V13.00,2013-03-05 22:59:00,
2013-03-05 16:04:00,28.0,19.2,30.25,East,96,9.0,15.0,69,0.00,,---,0.00,VWS V13.00,2013-03-05 23:04:00,
2013-03-05 16:09:00,28.2,19.7,30.25,ESE,103,11.0,12.0,70,0.00,,---,0.00,VWS V13.00,2013-03-05 23:09:00,
2013-03-05 16:14:00,28.3,19.8,30.25,East,101,9.0,12.0,70,0.00,,---,0.00,VWS V13.00,2013-03-05 23:14:00,
2013-03-05 16:19:00,28.3,19.8,30.25,ESE,102,6.0,12.0,70,0.00,,---,0.00,VWS V13.00,2013-03-05 23:19:00,
2013-03-05 16:24:00,28.3,20.1,30.25,ESE,109,7.0,12.0,71,0.00,,---,0.00,VWS V13.00,2013-03-05 23:24:00,
2013-03-05 16:29:00,28.3,20.1,30.25,ESE,105,7.0,12.0,71,0.00,,---,0.00,VWS V13.00,2013-03-05 23:29:00,
2013-03-05 16:34:00,28.2,20.4,30.25,ESE,108,11.0,12.0,72,0.00,,---,0.00,VWS V13.00,2013-03-05 23:34:00,
2013-03-05 16:39:00,28.1,20.2,30.25,East,97,9.0,11.0,72,0.00,,---,0.00,VWS V13.00,2013-03-05 23:39:00,
2013-03-05 16:44:00,28.0,20.5,30.25,ESE,108,5.0,13.0,73,0.00,,---,0.00,VWS V13.00,2013-03-05 23:44:00,
2013-03-05 16:49:00,27.8,20.3,30.25,East,98,9.0,13.0,73,0.00,,---,0.00,VWS V13.00,2013-03-05 23:49:00,
2013-03-05 16:54:00,27.6,20.1,30.26,ESE,103,12.0,13.0,73,0.00,,---,0.00,VWS V13.00,2013-03-05 23:54:00,
2013-03-05 16:59:00,27.4,20.2,30.26,ESE,102,7.0,13.0,74,0.00,,---,0.00,VWS V13.00,2013-03-05 23:59:00,
2013-03-05 17:04:00,27.1,19.9,30.26,ESE,105,5.0,13.0,74,0.00,,---,0.00,VWS V13.00,2013-03-06 00:04:00,
2013-03-05 17:09:00,26.8,20.0,30.26,ESE,109,6.0,7.0,75,0.00,,---,0.00,VWS V13.00,2013-03-06 00:09:00,
2013-03-05 17:14:00,26.4,19.6,30.26,ESE,114,6.0,10.0,75,0.00,,---,0.00,VWS V13.00,2013-03-06 00:14:00,
2013-03-05 17:19:00,26.2,19.7,30.26,ESE,121,10.0,12.0,76,0.00,,---,0.00,VWS V13.00,2013-03-06 00:19:00,
2013-03-05 17:24:00,25.9,19.4,30.27,ESE,117,9.0,12.0,76,0.00,,---,0.00,VWS V13.00,2013-03-06 00:24:00,
2013-03-05 17:29:00,25.7,19.5,30.27,ESE,115,12.0,12.0,77,0.00,,---,0.00,VWS V13.00,2013-03-06 00:29:00,
2013-03-05 17:34:00,25.5,19.3,30.27,ESE,115,9.0,12.0,77,0.00,,---,0.00,VWS V13.00,2013-03-06 00:34:00,
2013-03-05 17:39:00,25.4,19.2,30.27,ESE,119,8.0,10.0,77,0.00,,---,0.00,VWS V13.00,2013-03-06 00:39:00,
2013-03-05 17:44:00,25.2,19.3,30.27,ESE,114,8.0,13.0,78,0.00,,---,0.00,VWS V13.00,2013-03-06 00:44:00,
2013-03-05 17:49:00,25.1,18.9,30.27,ESE,108,12.0,13.0,77,0.00,,---,0.00,VWS V13.00,2013-03-06 00:49:00,
2013-03-05 17:54:00,24.9,19.0,30.28,ESE,102,13.0,14.0,78,0.00,,---,0.00,VWS V13.00,2013-03-06 00:54:00,
2013-03-05 17:59:00,24.8,18.6,30.28,East,101,7.0,16.0,77,0.00,,---,0.00,VWS V13.00,2013-03-06 00:59:00,
2013-03-05 18:04:00,24.7,18.5,30.28,ESE,103,11.0,16.0,77,0.00,,---,0.00,VWS V13.00,2013-03-06 01:04:00,
2013-03-05 18:09:00,24.6,18.7,30.27,ESE,103,7.0,9.0,78,0.00,,---,0.00,VWS V13.00,2013-03-06 01:09:00,
2013-03-05 18:14:00,24.4,18.5,30.27,ESE,103,5.0,10.0,78,0.00,,---,0.00,VWS V13.00,2013-03-06 01:14:00,
2013-03-05 18:19:00,24.2,18.6,30.27,ESE,105,3.0,10.0,79,0.00,,---,0.00,VWS V13.00,2013-03-06 01:19:00,
2013-03-05 18:24:00,24.0,18.5,30.27,ESE,103,6.0,11.0,79,0.00,,---,0.00,VWS V13.00,2013-03-06 01:24:00,
2013-03-05 18:29:00,23.8,18.2,30.27,ESE,104,6.0,11.0,79,0.00,,---,0.00,VWS V13.00,2013-03-06 01:29:00,
2013-03-05 18:34:00,23.7,18.1,30.27,ESE,103,12.0,12.0,79,0.00,,---,0.00,VWS V13.00,2013-03-06 01:34:00,
2013-03-05 18:39:00,23.6,18.1,30.27,ESE,103,10.0,11.0,79,0.00,,---,0.00,VWS V13.00,2013-03-06 01:39:00,
2013-03-05 18:44:00,23.5,18.0,30.27,ESE,102,7.0,12.0,79,0.00,,---,0.00,VWS V13.00,2013-03-06 01:44:00,
2013-03-05 18:49:00,23.3,17.8,30.27,ESE,106,7.0,12.0,79,0.00,,---,0.00,VWS V13.00,2013-03-06 01:49:00,
2013-03-05 18:54:00,23.1,17.6,30.26,ESE,108,7.0,12.0,79,0.00,,---,0.00,VWS V13.00,2013-03-06 01:54:00,
2013-03-05 18:59:00,23.0,17.8,30.26,ESE,106,6.0,12.0,80,0.00,,---,0.00,VWS V13.00,2013-03-06 01:59:00,
2013-03-05 19:04:00,22.8,17.6,30.26,ESE,110,9.0,12.0,80,0.00,,---,0.00,VWS V13.00,2013-03-06 02:04:00,
2013-03-05 19:09:00,22.6,17.4,30.26,ESE,109,7.0,8.0,80,0.00,,---,0.00,VWS V13.00,2013-03-06 02:09:00,
2013-03-05 19:14:00,22.4,17.2,30.26,ESE,113,5.0,11.0,80,0.00,,---,0.00,VWS V13.00,2013-03-06 02:14:00,
2013-03-05 19:19:00,22.3,17.1,30.26,ESE,113,4.0,11.0,80,0.00,,---,0.00,VWS V13.00,2013-03-06 02:19:00,
2013-03-05 19:24:00,22.3,17.1,30.28,ESE,102,4.0,11.0,80,0.00,,---,0.00,VWS V13.00,2013-03-06 02:24:00,
2013-03-05 19:29:00,22.2,17.0,30.28,ESE,103,4.0,11.0,80,0.00,,---,0.00,VWS V13.00,2013-03-06 02:29:00,
2013-03-05 19:34:00,22.1,16.9,30.28,ESE,102,5.0,11.0,80,0.00,,---,0.00,VWS V13.00,2013-03-06 02:34:00,
2013-03-05 19:39:00,22.0,17.1,30.27,ESE,103,5.0,5.0,81,0.00,,---,0.00,VWS V13.00,2013-03-06 02:39:00,
2013-03-05 19:44:00,22.0,17.1,30.27,ESE,103,4.0,9.0,81,0.00,,---,0.00,VWS V13.00,2013-03-06 02:44:00,
2013-03-05 19:49:00,21.9,17.0,30.27,ESE,108,6.0,11.0,81,0.00,,---,0.00,VWS V13.00,2013-03-06 02:49:00,
2013-03-05 19:54:00,22.0,16.8,30.24,ESE,109,11.0,11.0,80,0.00,,---,0.00,VWS V13.00,2013-03-06 02:54:00,
2013-03-05 19:59:00,22.0,16.8,30.24,ESE,109,7.0,11.0,80,0.00,,---,0.00,VWS V13.00,2013-03-06 02:59:00,
2013-03-05 20:04:00,22.0,16.8,30.24,ESE,112,6.0,13.0,80,0.00,,---,0.00,VWS V13.00,2013-03-06 03:04:00,
2013-03-05 20:09:00,21.9,16.7,30.24,ESE,107,9.0,10.0,80,0.00,,---,0.00,VWS V13.00,2013-03-06 03:09:00,
2013-03-05 20:14:00,21.9,16.7,30.24,ESE,109,6.0,11.0,80,0.00,,---,0.00,VWS V13.00,2013-03-06 03:14:00,
2013-03-05 20:19:00,21.8,16.6,30.24,ESE,107,6.0,11.0,80,0.00,,---,0.00,VWS V13.00,2013-03-06 03:19:00,
2013-03-05 20:24:00,21.7,16.5,30.24,ESE,104,3.0,11.0,80,0.00,,---,0.00,VWS V13.00,2013-03-06 03:24:00,
2013-03-05 20:29:00,21.6,16.4,30.24,ESE,105,4.0,11.0,80,0.00,,---,0.00,VWS V13.00,2013-03-06 03:29:00,
2013-03-05 20:34:00,21.6,16.4,30.24,ESE,107,7.0,11.0,80,0.00,,---,0.00,VWS V13.00,2013-03-06 03:34:00,
2013-03-05 20:39:00,21.6,16.4,30.24,ESE,106,6.0,6.0,80,0.00,,---,0.00,VWS V13.00,2013-03-06 03:39:00,
2013-03-05 20:44:00,21.7,16.5,30.24,ESE,112,5.0,10.0,80,0.00,,---,0.00,VWS V13.00,2013-03-06 03:44:00,
2013-03-05 20:49:00,21.8,16.6,30.24,ESE,111,9.0,10.0,80,0.00,,---,0.00,VWS V13.00,2013-03-06 03:49:00,
2013-03-05 20:54:00,22.0,16.5,30.20,ESE,118,3.0,11.0,79,0.00,,---,0.00,VWS V13.00,2013-03-06 03:54:00,
2013-03-05 20:59:00,22.0,16.5,30.20,ESE,117,9.0,11.0,79,0.00,,---,0.00,VWS V13.00,2013-03-06 03:59:00,
2013-03-05 21:04:00,22.0,16.5,30.20,ESE,110,5.0,11.0,79,0.00,,---,0.00,VWS V13.00,2013-03-06 04:04:00,
2013-03-05 21:09:00,22.0,16.5,30.20,ESE,111,0.0,0.0,79,0.00,,---,0.00,VWS V13.00,2013-03-06 04:09:00,
2013-03-05 21:14:00,22.0,16.5,30.20,ESE,111,5.0,6.0,79,0.00,,---,0.00,VWS V13.00,2013-03-06 04:14:00,
2013-03-05 21:19:00,22.0,16.5,30.20,SE,129,7.0,12.0,79,0.00,,---,0.00,VWS V13.00,2013-03-06 04:19:00,
2013-03-05 21:24:00,22.0,16.5,30.20,ESE,121,5.0,12.0,79,0.00,,---,0.00,VWS V13.00,2013-03-06 04:24:00,
2013-03-05 21:29:00,22.0,16.5,30.20,SE,129,8.0,12.0,79,0.00,,---,0.00,VWS V13.00,2013-03-06 04:29:00,
2013-03-05 21:34:00,22.0,16.5,30.20,SE,128,6.0,12.0,79,0.00,,---,0.00,VWS V13.00,2013-03-06 04:34:00,
2013-03-05 21:39:00,22.0,16.5,30.20,SE,124,6.0,7.0,79,0.00,,---,0.00,VWS V13.00,2013-03-06 04:39:00,
2013-03-05 21:44:00,22.0,16.5,30.20,SE,126,5.0,10.0,79,0.00,,---,0.00,VWS V13.00,2013-03-06 04:44:00,
2013-03-05 21:49:00,22.0,16.5,30.20,SE,127,9.0,12.0,79,0.00,,---,0.00,VWS V13.00,2013-03-06 04:49:00,
2013-03-05 21:54:00,21.9,16.4,30.15,SE,128,9.0,12.0,79,0.00,,---,0.00,VWS V13.00,2013-03-06 04:54:00,
2013-03-05 21:59:00,21.8,16.3,30.15,SE,129,7.0,12.0,79,0.00,,---,0.00,VWS V13.00,2013-03-06 04:59:00,
2013-03-05 22:00:00,21.8,16.3,30.15,SE,129,10.0,12.0,79,0.00,,---,0.00,VWS V13.00,2013-03-06 05:00:00,
2013-03-05 22:05:00,21.7,16.5,30.15,SE,127,9.0,12.0,80,0.00,,---,0.00,VWS V13.00,2013-03-06 05:05:00,
2013-03-05 22:10:00,21.6,16.4,30.15,SE,126,8.0,9.0,80,0.00,,---,0.00,VWS V13.00,2013-03-06 05:10:00,
2013-03-05 22:15:00,21.5,16.3,30.15,SE,125,10.0,10.0,80,0.00,,---,0.00,VWS V13.00,2013-03-06 05:15:00,
2013-03-05 22:20:00,21.4,16.2,30.15,SE,125,7.0,11.0,80,0.00,,---,0.00,VWS V13.00,2013-03-06 05:20:00,
2013-03-05 22:25:00,21.3,16.4,30.14,SE,127,7.0,12.0,81,0.00,,---,0.00,VWS V13.00,2013-03-06 05:25:00,
2013-03-05 22:30:00,21.3,16.4,30.14,SE,129,9.0,12.0,81,0.00,,---,0.00,VWS V13.00,2013-03-06 05:30:00,
2013-03-05 22:35:00,21.3,16.4,30.14,SE,129,10.0,12.0,81,0.00,,---,0.00,VWS V13.00,2013-03-06 05:35:00,
2013-03-05 22:40:00,21.2,16.3,30.14,SE,129,7.0,7.0,81,0.00,,---,0.00,VWS V13.00,2013-03-06 05:40:00,
2013-03-05 22:45:00,21.2,16.3,30.14,SE,128,5.0,7.0,81,0.00,,---,0.00,VWS V13.00,2013-03-06 05:45:00,
2013-03-05 22:50:00,21.0,16.1,30.14,SE,127,5.0,9.0,81,0.00,,---,0.00,VWS V13.00,2013-03-06 05:50:00,
2013-03-05 22:55:00,20.9,16.0,30.12,SE,126,6.0,9.0,81,0.00,,---,0.00,VWS V13.00,2013-03-06 05:55:00,
2013-03-05 23:00:00,20.8,16.2,30.12,SE,126,5.0,9.0,82,0.00,,---,0.00,VWS V13.00,2013-03-06 06:00:00,
2013-03-05 23:05:00,20.8,15.9,30.12,SE,126,6.0,9.0,81,0.00,,---,0.00,VWS V13.00,2013-03-06 06:05:00,
2013-03-05 23:10:00,20.8,16.2,30.12,SE,126,3.0,4.0,82,0.00,,---,0.00,VWS V13.00,2013-03-06 06:10:00,
2013-03-05 23:15:00,20.8,16.2,30.12,SE,126,6.0,8.0,82,0.00,,---,0.00,VWS V13.00,2013-03-06 06:15:00,
2013-03-05 23:20:00,20.9,16.3,30.12,SE,128,10.0,11.0,82,0.00,,---,0.00,VWS V13.00,2013-03-06 06:20:00,
2013-03-05 23:25:00,21.0,16.1,30.11,SE,132,9.0,11.0,81,0.00,,---,0.00,VWS V13.00,2013-03-06 06:25:00,
2013-03-05 23:30:00,21.1,16.2,30.11,SE,133,9.0,11.0,81,0.00,,---,0.00,VWS V13.00,2013-03-06 06:30:00,
2013-03-05 23:35:00,21.2,16.0,30.11,SE,134,8.0,11.0,80,0.00,,---,0.00,VWS V13.00,2013-03-06 06:35:00,
2013-03-05 23:40:00,21.2,16.0,30.11,SE,134,5.0,7.0,80,0.00,,---,0.00,VWS V13.00,2013-03-06 06:40:00,
2013-03-05 23:45:00,21.3,15.8,30.11,SE,132,7.0,11.0,79,0.00,,---,0.00,VWS V13.00,2013-03-06 06:45:00,
2013-03-05 23:50:00,21.3,15.8,30.11,SE,132,8.0,11.0,79,0.00,,---,0.00,VWS V13.00,2013-03-06 06:50:00,
2013-03-05 23:55:00,21.3,15.8,30.10,SE,132,7.0,11.0,79,0.00,,---,0.00,VWS V13.00,2013-03-06 06:55:00,